sensor_id;sensor_type;location;lat;lon;timestamp;pressure;altitude;pressure_sealevel;temperature;humidity
5814;BME280;2933;52.302;8.134;2022-07-29T00:04:37;100910.66;;;16.42;55.25
5814;BME280;2933;52.302;8.134;2022-07-29T00:09:40;100904.31;;;16.33;55.94
5814;BME280;2933;52.302;8.134;2022-07-29T00:14:42;100899.97;;;16.43;55.34
5814;BME280;2933;52.302;8.134;2022-07-29T00:19:44;100887.78;;;16.08;56.25
5814;BME280;2933;52.302;8.134;2022-07-29T00:24:48;100881.44;;;16.11;56.50
5814;BME280;2933;52.302;8.134;2022-07-29T00:29:49;100867.78;;;16.17;56.24
5814;BME280;2933;52.302;8.134;2022-07-29T00:34:51;100856.63;;;16.02;56.39
5814;BME280;2933;52.302;8.134;2022-07-29T00:40:11;100852.69;;;16.08;56.80
5814;BME280;2933;52.302;8.134;2022-07-29T00:45:13;100847.53;;;15.83;57.21
5814;BME280;2933;52.302;8.134;2022-07-29T00:50:16;100849.19;;;15.85;57.39
5814;BME280;2933;52.302;8.134;2022-07-29T00:55:20;100829.66;;;16.10;56.73
5814;BME280;2933;52.302;8.134;2022-07-29T01:00:24;100837.59;;;15.98;57.32
5814;BME280;2933;52.302;8.134;2022-07-29T01:05:27;100835.75;;;15.65;58.41
5814;BME280;2933;52.302;8.134;2022-07-29T01:10:31;100827.91;;;15.88;57.77
5814;BME280;2933;52.302;8.134;2022-07-29T01:15:38;100832.88;;;15.79;57.80
5814;BME280;2933;52.302;8.134;2022-07-29T01:20:58;100823.44;;;15.77;57.69
5814;BME280;2933;52.302;8.134;2022-07-29T01:26:27;100813.97;;;15.74;58.22
5814;BME280;2933;52.302;8.134;2022-07-29T01:31:38;100823.00;;;15.83;57.63
5814;BME280;2933;52.302;8.134;2022-07-29T01:36:47;100818.50;;;15.61;58.16
5814;BME280;2933;52.302;8.134;2022-07-29T01:41:55;100817.16;;;15.44;58.19
5814;BME280;2933;52.302;8.134;2022-07-29T01:47:02;100799.19;;;15.38;59.07
5814;BME280;2933;52.302;8.134;2022-07-29T01:52:10;100802.22;;;15.56;58.72
5814;BME280;2933;52.302;8.134;2022-07-29T01:57:16;100800.41;;;15.45;59.04
5814;BME280;2933;52.302;8.134;2022-07-29T02:02:23;100795.53;;;15.51;59.03
5814;BME280;2933;52.302;8.134;2022-07-29T02:07:26;100783.19;;;15.41;59.51
5814;BME280;2933;52.302;8.134;2022-07-29T02:12:31;100786.03;;;15.49;58.70
5814;BME280;2933;52.302;8.134;2022-07-29T02:17:41;100797.63;;;15.24;59.60
5814;BME280;2933;52.302;8.134;2022-07-29T02:22:44;100750.34;;;15.11;59.12
5814;BME280;2933;52.302;8.134;2022-07-29T02:27:48;100775.63;;;15.36;59.46
5814;BME280;2933;52.302;8.134;2022-07-29T02:32:53;100780.16;;;15.23;59.49
5814;BME280;2933;52.302;8.134;2022-07-29T02:37:56;100758.84;;;15.03;59.92
5814;BME280;2933;52.302;8.134;2022-07-29T02:43:15;100760.50;;;15.04;60.23
5814;BME280;2933;52.302;8.134;2022-07-29T02:48:23;100755.94;;;14.95;60.19
5814;BME280;2933;52.302;8.134;2022-07-29T02:53:31;100756.41;;;14.89;60.30
5814;BME280;2933;52.302;8.134;2022-07-29T02:58:39;100766.19;;;14.86;60.82
5814;BME280;2933;52.302;8.134;2022-07-29T03:03:45;100759.06;;;15.00;60.60
5814;BME280;2933;52.302;8.134;2022-07-29T03:08:48;100765.34;;;14.86;60.23
5814;BME280;2933;52.302;8.134;2022-07-29T03:13:50;100741.28;;;14.79;60.26
5814;BME280;2933;52.302;8.134;2022-07-29T03:18:54;100762.03;;;14.95;59.97
5814;BME280;2933;52.302;8.134;2022-07-29T03:23:55;100773.56;;;14.81;59.92
5814;BME280;2933;52.302;8.134;2022-07-29T03:28:57;100773.44;;;15.18;59.34
5814;BME280;2933;52.302;8.134;2022-07-29T03:34:00;100781.31;;;15.07;59.74
5814;BME280;2933;52.302;8.134;2022-07-29T03:39:02;100781.28;;;14.96;59.67
5814;BME280;2933;52.302;8.134;2022-07-29T03:44:06;100767.13;;;14.85;60.04
5814;BME280;2933;52.302;8.134;2022-07-29T03:49:11;100777.53;;;14.76;60.99
5814;BME280;2933;52.302;8.134;2022-07-29T03:54:13;100775.75;;;14.88;60.64
5814;BME280;2933;52.302;8.134;2022-07-29T03:59:16;100779.00;;;14.67;61.45
5814;BME280;2933;52.302;8.134;2022-07-29T04:04:21;100761.94;;;14.97;60.34
5814;BME280;2933;52.302;8.134;2022-07-29T04:09:22;100762.00;;;14.84;60.28
5814;BME280;2933;52.302;8.134;2022-07-29T04:14:24;100769.34;;;14.67;60.76
5814;BME280;2933;52.302;8.134;2022-07-29T04:19:27;100771.53;;;14.74;60.44
5814;BME280;2933;52.302;8.134;2022-07-29T04:24:29;100755.19;;;14.93;60.18
5814;BME280;2933;52.302;8.134;2022-07-29T04:29:30;100760.03;;;15.22;59.65
5814;BME280;2933;52.302;8.134;2022-07-29T04:34:33;100761.66;;;14.89;61.48
5814;BME280;2933;52.302;8.134;2022-07-29T04:39:35;100759.63;;;14.92;60.64
5814;BME280;2933;52.302;8.134;2022-07-29T04:44:36;100748.88;;;14.95;59.69
5814;BME280;2933;52.302;8.134;2022-07-29T04:49:39;100767.44;;;15.05;59.37
5814;BME280;2933;52.302;8.134;2022-07-29T04:54:41;100766.78;;;14.90;60.05
5814;BME280;2933;52.302;8.134;2022-07-29T04:59:42;100769.66;;;14.87;60.57
5814;BME280;2933;52.302;8.134;2022-07-29T05:04:46;100766.59;;;14.93;60.66
5814;BME280;2933;52.302;8.134;2022-07-29T05:09:48;100772.53;;;14.95;60.36
5814;BME280;2933;52.302;8.134;2022-07-29T05:14:49;100721.88;;;15.05;60.29
5814;BME280;2933;52.302;8.134;2022-07-29T05:19:52;100740.44;;;15.03;60.30
5814;BME280;2933;52.302;8.134;2022-07-29T05:24:54;100761.66;;;15.35;59.65
5814;BME280;2933;52.302;8.134;2022-07-29T05:29:55;100764.59;;;15.19;59.43
5814;BME280;2933;52.302;8.134;2022-07-29T05:34:58;100767.94;;;15.22;60.77
5814;BME280;2933;52.302;8.134;2022-07-29T05:40:00;100769.22;;;15.51;59.26
5814;BME280;2933;52.302;8.134;2022-07-29T05:45:02;100763.34;;;15.59;60.03
5814;BME280;2933;52.302;8.134;2022-07-29T05:50:08;100758.78;;;15.61;59.15
5814;BME280;2933;52.302;8.134;2022-07-29T05:55:09;100746.69;;;15.47;59.39
5814;BME280;2933;52.302;8.134;2022-07-29T06:00:11;100753.41;;;15.63;59.72
5814;BME280;2933;52.302;8.134;2022-07-29T06:05:15;100755.19;;;15.62;58.75
5814;BME280;2933;52.302;8.134;2022-07-29T06:10:16;100787.06;;;15.82;58.94
5814;BME280;2933;52.302;8.134;2022-07-29T06:15:19;100792.44;;;16.03;59.19
5814;BME280;2933;52.302;8.134;2022-07-29T06:20:22;100784.97;;;16.20;59.26
5814;BME280;2933;52.302;8.134;2022-07-29T06:25:23;100792.84;;;16.31;58.17
5814;BME280;2933;52.302;8.134;2022-07-29T06:30:25;100785.22;;;16.28;58.97
5814;BME280;2933;52.302;8.134;2022-07-29T06:35:28;100795.59;;;16.73;58.91
5814;BME280;2933;52.302;8.134;2022-07-29T06:40:30;100795.59;;;16.73;57.10
5814;BME280;2933;52.302;8.134;2022-07-29T06:45:49;100785.66;;;17.09;56.56
5814;BME280;2933;52.302;8.134;2022-07-29T06:50:52;100791.81;;;17.41;56.34
5814;BME280;2933;52.302;8.134;2022-07-29T06:55:54;100798.25;;;17.48;55.29
5814;BME280;2933;52.302;8.134;2022-07-29T07:00:56;100800.84;;;17.69;55.84
5814;BME280;2933;52.302;8.134;2022-07-29T07:05:59;100798.56;;;17.55;55.71
5814;BME280;2933;52.302;8.134;2022-07-29T07:11:01;100806.44;;;17.76;54.78
5814;BME280;2933;52.302;8.134;2022-07-29T07:16:04;100802.94;;;17.97;55.75
5814;BME280;2933;52.302;8.134;2022-07-29T07:21:07;100805.69;;;17.95;55.63
5814;BME280;2933;52.302;8.134;2022-07-29T07:26:08;100801.00;;;18.08;54.92
5814;BME280;2933;52.302;8.134;2022-07-29T07:31:11;100793.84;;;18.30;54.83
5814;BME280;2933;52.302;8.134;2022-07-29T07:36:14;100761.84;;;18.53;54.65
5814;BME280;2933;52.302;8.134;2022-07-29T07:41:15;100793.03;;;18.69;53.45
5814;BME280;2933;52.302;8.134;2022-07-29T07:46:17;100803.06;;;18.85;52.41
5814;BME280;2933;52.302;8.134;2022-07-29T07:51:19;100803.22;;;19.03;52.83
5814;BME280;2933;52.302;8.134;2022-07-29T07:56:21;100776.72;;;18.83;53.37
5814;BME280;2933;52.302;8.134;2022-07-29T08:01:22;100814.22;;;19.08;52.54
5814;BME280;2933;52.302;8.134;2022-07-29T08:06:25;100805.84;;;19.13;51.79
5814;BME280;2933;52.302;8.134;2022-07-29T08:11:27;100790.88;;;19.41;52.35
5814;BME280;2933;52.302;8.134;2022-07-29T08:16:28;100791.25;;;19.56;51.45
5814;BME280;2933;52.302;8.134;2022-07-29T08:21:32;100796.13;;;19.61;51.39
5814;BME280;2933;52.302;8.134;2022-07-29T08:26:33;100772.06;;;19.34;51.26
5814;BME280;2933;52.302;8.134;2022-07-29T08:31:35;100794.75;;;19.47;52.01
5814;BME280;2933;52.302;8.134;2022-07-29T08:36:38;100784.59;;;19.52;52.44
5814;BME280;2933;52.302;8.134;2022-07-29T08:41:39;100794.88;;;19.55;51.94
5814;BME280;2933;52.302;8.134;2022-07-29T08:46:41;100806.34;;;19.46;51.67
5814;BME280;2933;52.302;8.134;2022-07-29T08:51:45;100804.56;;;19.84;50.23
5814;BME280;2933;52.302;8.134;2022-07-29T08:56:48;100800.88;;;19.95;50.22
5814;BME280;2933;52.302;8.134;2022-07-29T09:01:52;100774.00;;;20.08;49.06
5814;BME280;2933;52.302;8.134;2022-07-29T09:06:57;100761.09;;;20.41;48.37
5814;BME280;2933;52.302;8.134;2022-07-29T09:12:01;100779.63;;;20.87;48.33
5814;BME280;2933;52.302;8.134;2022-07-29T09:17:04;100774.84;;;21.43;48.22
5814;BME280;2933;52.302;8.134;2022-07-29T09:22:07;100788.47;;;21.66;46.34
5814;BME280;2933;52.302;8.134;2022-07-29T09:27:18;100780.97;;;22.04;45.65
5814;BME280;2933;52.302;8.134;2022-07-29T09:32:20;100770.13;;;21.89;44.42
5814;BME280;2933;52.302;8.134;2022-07-29T09:37:27;100781.13;;;22.11;45.28
5814;BME280;2933;52.302;8.134;2022-07-29T09:42:30;100774.75;;;22.47;43.63
5814;BME280;2933;52.302;8.134;2022-07-29T09:47:45;100740.25;;;22.20;45.49
5814;BME280;2933;52.302;8.134;2022-07-29T09:52:52;100781.91;;;21.95;44.09
5814;BME280;2933;52.302;8.134;2022-07-29T09:58:16;100774.22;;;21.84;44.24
5814;BME280;2933;52.302;8.134;2022-07-29T10:03:19;100768.63;;;21.95;45.79
5814;BME280;2933;52.302;8.134;2022-07-29T10:08:25;100770.16;;;22.06;44.81
5814;BME280;2933;52.302;8.134;2022-07-29T10:13:27;100774.91;;;21.86;44.17
5814;BME280;2933;52.302;8.134;2022-07-29T10:18:29;100782.53;;;21.54;45.03
5814;BME280;2933;52.302;8.134;2022-07-29T10:23:34;100784.94;;;21.57;46.86
5814;BME280;2933;52.302;8.134;2022-07-29T10:28:35;100777.34;;;21.71;44.75
5814;BME280;2933;52.302;8.134;2022-07-29T10:33:47;100784.69;;;21.85;45.88
5814;BME280;2933;52.302;8.134;2022-07-29T10:39:00;100784.75;;;22.53;44.49
5814;BME280;2933;52.302;8.134;2022-07-29T10:44:08;100776.41;;;22.56;43.88
5814;BME280;2933;52.302;8.134;2022-07-29T10:49:12;100747.97;;;22.56;43.68
5814;BME280;2933;52.302;8.134;2022-07-29T10:54:15;100770.44;;;22.46;43.74
5814;BME280;2933;52.302;8.134;2022-07-29T10:59:23;100766.13;;;22.53;44.86
5814;BME280;2933;52.302;8.134;2022-07-29T11:10:21;100769.59;;;22.45;45.11
5814;BME280;2933;52.302;8.134;2022-07-29T11:15:23;100771.69;;;22.25;45.04
5814;BME280;2933;52.302;8.134;2022-07-29T11:20:32;100772.69;;;22.24;44.87
5814;BME280;2933;52.302;8.134;2022-07-29T11:25:36;100771.59;;;22.43;45.65
5814;BME280;2933;52.302;8.134;2022-07-29T11:30:48;100762.28;;;22.64;43.95
5814;BME280;2933;52.302;8.134;2022-07-29T11:36:08;100767.44;;;22.73;44.70
5814;BME280;2933;52.302;8.134;2022-07-29T11:41:25;100747.28;;;22.63;43.62
5814;BME280;2933;52.302;8.134;2022-07-29T11:46:47;100757.47;;;22.59;42.85
5814;BME280;2933;52.302;8.134;2022-07-29T11:51:51;100755.28;;;22.71;43.51
5814;BME280;2933;52.302;8.134;2022-07-29T11:56:54;100743.28;;;23.16;43.73
5814;BME280;2933;52.302;8.134;2022-07-29T12:01:57;100741.09;;;23.28;42.46
5814;BME280;2933;52.302;8.134;2022-07-29T12:06:59;100728.81;;;23.19;41.84
5814;BME280;2933;52.302;8.134;2022-07-29T12:12:03;100744.28;;;22.99;43.16
5814;BME280;2933;52.302;8.134;2022-07-29T12:17:04;100701.69;;;22.82;42.57
5814;BME280;2933;52.302;8.134;2022-07-29T12:22:06;100735.47;;;22.90;41.57
5814;BME280;2933;52.302;8.134;2022-07-29T12:27:09;100731.97;;;22.98;42.55
5814;BME280;2933;52.302;8.134;2022-07-29T12:32:11;100735.78;;;23.20;42.33
5814;BME280;2933;52.302;8.134;2022-07-29T12:37:12;100743.78;;;23.20;42.22
5814;BME280;2933;52.302;8.134;2022-07-29T12:42:16;100737.25;;;23.31;42.86
5814;BME280;2933;52.302;8.134;2022-07-29T12:47:19;100745.97;;;22.91;47.22
5814;BME280;2933;52.302;8.134;2022-07-29T12:52:28;100717.50;;;22.67;46.67
5814;BME280;2933;52.302;8.134;2022-07-29T12:57:31;100743.78;;;22.79;47.95
5814;BME280;2933;52.302;8.134;2022-07-29T13:02:33;100728.84;;;22.53;47.07
5814;BME280;2933;52.302;8.134;2022-07-29T13:07:35;100744.31;;;22.49;45.51
5814;BME280;2933;52.302;8.134;2022-07-29T13:12:39;100743.47;;;22.49;46.17
5814;BME280;2933;52.302;8.134;2022-07-29T13:17:55;100745.75;;;22.27;45.38
5814;BME280;2933;52.302;8.134;2022-07-29T13:22:57;100755.56;;;22.26;45.97
5814;BME280;2933;52.302;8.134;2022-07-29T13:28:01;100714.94;;;22.00;47.58
5814;BME280;2933;52.302;8.134;2022-07-29T13:33:03;100757.19;;;22.11;48.58
5814;BME280;2933;52.302;8.134;2022-07-29T13:38:04;100745.94;;;21.74;49.18
5814;BME280;2933;52.302;8.134;2022-07-29T13:43:10;100732.75;;;21.56;51.01
5814;BME280;2933;52.302;8.134;2022-07-29T13:48:12;100740.91;;;21.63;52.75
5814;BME280;2933;52.302;8.134;2022-07-29T13:53:13;100722.75;;;21.24;56.91
5814;BME280;2933;52.302;8.134;2022-07-29T13:58:16;100736.34;;;21.21;58.41
5814;BME280;2933;52.302;8.134;2022-07-29T14:03:18;100741.22;;;20.99;56.62
5814;BME280;2933;52.302;8.134;2022-07-29T14:08:20;100728.28;;;20.78;59.07
5814;BME280;2933;52.302;8.134;2022-07-29T14:13:22;100730.41;;;20.74;61.03
5814;BME280;2933;52.302;8.134;2022-07-29T14:18:24;100702.94;;;20.65;60.89
5814;BME280;2933;52.302;8.134;2022-07-29T14:23:26;100693.25;;;20.74;60.36
5814;BME280;2933;52.302;8.134;2022-07-29T14:28:28;100714.47;;;20.74;59.40
5814;BME280;2933;52.302;8.134;2022-07-29T14:33:30;100719.72;;;20.92;58.92
5814;BME280;2933;52.302;8.134;2022-07-29T14:38:32;100721.56;;;20.92;57.45
5814;BME280;2933;52.302;8.134;2022-07-29T14:43:35;100692.09;;;20.77;57.89
5814;BME280;2933;52.302;8.134;2022-07-29T14:48:36;100727.06;;;20.98;58.63
5814;BME280;2933;52.302;8.134;2022-07-29T14:53:38;100728.09;;;20.97;57.47
5814;BME280;2933;52.302;8.134;2022-07-29T14:58:40;100723.66;;;21.06;57.91
5814;BME280;2933;52.302;8.134;2022-07-29T15:03:42;100709.59;;;21.14;59.50
5814;BME280;2933;52.302;8.134;2022-07-29T15:08:44;100709.34;;;20.99;58.93
5814;BME280;2933;52.302;8.134;2022-07-29T15:13:47;100733.78;;;20.85;60.43
5814;BME280;2933;52.302;8.134;2022-07-29T15:18:48;100737.81;;;20.89;61.55
5814;BME280;2933;52.302;8.134;2022-07-29T15:23:50;100744.06;;;20.61;63.18
5814;BME280;2933;52.302;8.134;2022-07-29T15:28:53;100734.56;;;20.41;64.38
5814;BME280;2933;52.302;8.134;2022-07-29T15:33:55;100746.63;;;20.53;66.68
5814;BME280;2933;52.302;8.134;2022-07-29T15:38:58;100721.50;;;20.47;66.69
5814;BME280;2933;52.302;8.134;2022-07-29T15:44:20;100722.38;;;20.48;67.96
5814;BME280;2933;52.302;8.134;2022-07-29T15:49:22;100715.63;;;20.36;66.44
5814;BME280;2933;52.302;8.134;2022-07-29T15:54:30;100729.25;;;20.77;65.20
5814;BME280;2933;52.302;8.134;2022-07-29T15:59:33;100696.09;;;20.81;64.04
5814;BME280;2933;52.302;8.134;2022-07-29T16:04:35;100735.44;;;21.04;63.14
5814;BME280;2933;52.302;8.134;2022-07-29T16:09:37;100714.06;;;20.87;63.90
5814;BME280;2933;52.302;8.134;2022-07-29T16:14:40;100708.78;;;21.13;62.29
5814;BME280;2933;52.302;8.134;2022-07-29T16:19:41;100707.22;;;21.11;61.30
5814;BME280;2933;52.302;8.134;2022-07-29T16:24:43;100688.00;;;21.17;60.10
5814;BME280;2933;52.302;8.134;2022-07-29T16:29:46;100717.63;;;21.22;59.77
5814;BME280;2933;52.302;8.134;2022-07-29T16:34:49;100716.88;;;21.12;58.86
5814;BME280;2933;52.302;8.134;2022-07-29T16:39:51;100715.59;;;21.16;61.24
5814;BME280;2933;52.302;8.134;2022-07-29T16:44:54;100679.38;;;21.15;60.44
5814;BME280;2933;52.302;8.134;2022-07-29T16:49:55;100704.78;;;21.18;60.91
5814;BME280;2933;52.302;8.134;2022-07-29T16:54:57;100692.50;;;21.17;60.81
5814;BME280;2933;52.302;8.134;2022-07-29T17:00:00;100702.66;;;21.21;59.78
5814;BME280;2933;52.302;8.134;2022-07-29T17:05:02;100715.88;;;21.13;57.49
5814;BME280;2933;52.302;8.134;2022-07-29T17:10:05;100717.03;;;21.10;58.27
5814;BME280;2933;52.302;8.134;2022-07-29T17:15:10;100684.81;;;20.79;58.53
5814;BME280;2933;52.302;8.134;2022-07-29T17:20:12;100708.81;;;20.95;58.59
5814;BME280;2933;52.302;8.134;2022-07-29T17:25:14;100674.66;;;20.74;58.72
5814;BME280;2933;52.302;8.134;2022-07-29T17:30:17;100707.25;;;20.85;60.18
5814;BME280;2933;52.302;8.134;2022-07-29T17:35:19;100710.56;;;20.69;59.92
5814;BME280;2933;52.302;8.134;2022-07-29T17:40:37;100704.25;;;20.61;60.02
5814;BME280;2933;52.302;8.134;2022-07-29T17:45:40;100700.66;;;20.71;61.16
5814;BME280;2933;52.302;8.134;2022-07-29T17:50:42;100689.31;;;20.42;61.92
5814;BME280;2933;52.302;8.134;2022-07-29T17:55:44;100716.13;;;20.57;62.56
5814;BME280;2933;52.302;8.134;2022-07-29T18:00:49;100713.88;;;20.44;61.84
5814;BME280;2933;52.302;8.134;2022-07-29T18:05:50;100711.44;;;20.51;62.16
5814;BME280;2933;52.302;8.134;2022-07-29T18:10:52;100697.81;;;20.28;62.64
5814;BME280;2933;52.302;8.134;2022-07-29T18:15:55;100720.00;;;20.45;61.54
5814;BME280;2933;52.302;8.134;2022-07-29T18:20:57;100725.47;;;20.43;62.24
5814;BME280;2933;52.302;8.134;2022-07-29T18:26:06;100743.13;;;20.34;61.33
5814;BME280;2933;52.302;8.134;2022-07-29T18:31:09;100734.97;;;20.28;62.26
5814;BME280;2933;52.302;8.134;2022-07-29T18:36:12;100721.50;;;20.11;62.95
5814;BME280;2933;52.302;8.134;2022-07-29T18:41:14;100740.16;;;20.20;63.92
5814;BME280;2933;52.302;8.134;2022-07-29T18:46:16;100740.78;;;20.13;63.60
5814;BME280;2933;52.302;8.134;2022-07-29T18:51:18;100748.50;;;20.07;65.46
5814;BME280;2933;52.302;8.134;2022-07-29T18:56:20;100762.53;;;19.89;65.00
5814;BME280;2933;52.302;8.134;2022-07-29T19:01:23;100758.91;;;19.90;64.77
5814;BME280;2933;52.302;8.134;2022-07-29T19:06:24;100768.69;;;19.90;65.63
5814;BME280;2933;52.302;8.134;2022-07-29T19:11:26;100770.47;;;19.89;66.42
5814;BME280;2933;52.302;8.134;2022-07-29T19:16:29;100778.94;;;20.02;65.67
5814;BME280;2933;52.302;8.134;2022-07-29T19:21:31;100777.22;;;19.83;66.18
5814;BME280;2933;52.302;8.134;2022-07-29T19:26:32;100779.50;;;19.68;67.16
5814;BME280;2933;52.302;8.134;2022-07-29T19:31:36;100770.47;;;19.61;66.38
5814;BME280;2933;52.302;8.134;2022-07-29T19:36:39;100781.03;;;19.71;67.20
5814;BME280;2933;52.302;8.134;2022-07-29T19:41:41;100789.25;;;19.68;68.27
5814;BME280;2933;52.302;8.134;2022-07-29T19:46:44;100775.94;;;19.50;68.98
5814;BME280;2933;52.302;8.134;2022-07-29T19:51:46;100789.16;;;19.60;69.12
5814;BME280;2933;52.302;8.134;2022-07-29T19:56:47;100798.28;;;19.37;69.06
5814;BME280;2933;52.302;8.134;2022-07-29T20:01:50;100803.28;;;19.41;69.83
5814;BME280;2933;52.302;8.134;2022-07-29T20:06:52;100784.63;;;19.32;69.58
5814;BME280;2933;52.302;8.134;2022-07-29T20:11:57;100782.56;;;19.26;69.83
5814;BME280;2933;52.302;8.134;2022-07-29T20:17:00;100810.72;;;19.37;71.23
5814;BME280;2933;52.302;8.134;2022-07-29T20:22:02;100809.88;;;19.27;71.89
5814;BME280;2933;52.302;8.134;2022-07-29T20:27:04;100809.59;;;19.30;71.88
5814;BME280;2933;52.302;8.134;2022-07-29T20:32:07;100826.03;;;19.33;71.37
5814;BME280;2933;52.302;8.134;2022-07-29T20:37:11;100829.81;;;19.31;72.05
5814;BME280;2933;52.302;8.134;2022-07-29T20:42:14;100836.25;;;19.28;72.30
5814;BME280;2933;52.302;8.134;2022-07-29T20:47:17;100808.09;;;19.08;70.95
5814;BME280;2933;52.302;8.134;2022-07-29T20:52:20;100833.72;;;19.17;70.92
5814;BME280;2933;52.302;8.134;2022-07-29T20:57:22;100831.38;;;19.04;71.94
5814;BME280;2933;52.302;8.134;2022-07-29T21:02:25;100819.75;;;18.56;77.06
5814;BME280;2933;52.302;8.134;2022-07-29T21:07:27;100791.19;;;18.20;79.86
5814;BME280;2933;52.302;8.134;2022-07-29T21:12:29;100831.56;;;18.42;83.02
5814;BME280;2933;52.302;8.134;2022-07-29T21:17:33;100842.28;;;18.31;85.84
5814;BME280;2933;52.302;8.134;2022-07-29T21:22:35;100847.44;;;18.01;85.43
5814;BME280;2933;52.302;8.134;2022-07-29T21:27:37;100843.47;;;17.86;88.23
5814;BME280;2933;52.302;8.134;2022-07-29T21:32:57;100843.19;;;17.79;89.71
5814;BME280;2933;52.302;8.134;2022-07-29T21:37:59;100844.56;;;17.83;89.34
5814;BME280;2933;52.302;8.134;2022-07-29T21:43:00;100841.06;;;17.73;89.48
5814;BME280;2933;52.302;8.134;2022-07-29T21:48:04;100846.91;;;17.76;89.79
5814;BME280;2933;52.302;8.134;2022-07-29T21:53:05;100850.84;;;17.61;90.70
5814;BME280;2933;52.302;8.134;2022-07-29T21:58:07;100855.84;;;17.54;90.82
5814;BME280;2933;52.302;8.134;2022-07-29T22:03:11;100858.78;;;17.40;91.90
5814;BME280;2933;52.302;8.134;2022-07-29T22:08:13;100848.81;;;17.43;91.39
5814;BME280;2933;52.302;8.134;2022-07-29T22:13:14;100849.13;;;17.29;92.30
5814;BME280;2933;52.302;8.134;2022-07-29T22:18:17;100843.84;;;17.29;93.31
5814;BME280;2933;52.302;8.134;2022-07-29T22:23:19;100832.13;;;17.22;93.45
5814;BME280;2933;52.302;8.134;2022-07-29T22:28:20;100826.44;;;17.05;94.36
5814;BME280;2933;52.302;8.134;2022-07-29T22:33:23;100816.69;;;16.85;94.67
5814;BME280;2933;52.302;8.134;2022-07-29T22:38:25;100840.59;;;17.04;93.63
5814;BME280;2933;52.302;8.134;2022-07-29T22:43:27;100836.41;;;17.02;93.47
5814;BME280;2933;52.302;8.134;2022-07-29T22:48:30;100836.13;;;16.84;94.10
5814;BME280;2933;52.302;8.134;2022-07-29T22:53:31;100815.47;;;16.56;94.51
5814;BME280;2933;52.302;8.134;2022-07-29T22:58:33;100830.72;;;16.85;93.65
5814;BME280;2933;52.302;8.134;2022-07-29T23:03:36;100833.84;;;16.79;94.50
5814;BME280;2933;52.302;8.134;2022-07-29T23:08:38;100839.44;;;16.86;94.87
5814;BME280;2933;52.302;8.134;2022-07-29T23:13:40;100834.19;;;16.97;94.61
5814;BME280;2933;52.302;8.134;2022-07-29T23:18:43;100835.84;;;16.87;93.66
5814;BME280;2933;52.302;8.134;2022-07-29T23:23:47;100835.63;;;16.90;93.73
5814;BME280;2933;52.302;8.134;2022-07-29T23:28:48;100836.22;;;16.93;94.67
5814;BME280;2933;52.302;8.134;2022-07-29T23:33:51;100838.69;;;16.62;96.64
5814;BME280;2933;52.302;8.134;2022-07-29T23:38:53;100828.97;;;16.63;97.12
5814;BME280;2933;52.302;8.134;2022-07-29T23:43:56;100792.28;;;16.71;95.42
5814;BME280;2933;52.302;8.134;2022-07-29T23:49:00;100819.56;;;16.82;95.58
5814;BME280;2933;52.302;8.134;2022-07-29T23:54:02;100823.69;;;16.63;95.02
5814;BME280;2933;52.302;8.134;2022-07-29T23:59:04;100800.75;;;16.42;95.59
